sensor_id;sensor_type;location;lat;lon;timestamp;P1;durP1;ratioP1;P2;durP2;ratioP2
5869;SDS011;2961;47.702;9.410;2023-12-28T00:01:32;16.17;;;9.23;;
5869;SDS011;2961;47.702;9.410;2023-12-28T00:03:59;11.23;;;7.87;;
5869;SDS011;2961;47.702;9.410;2023-12-28T00:06:26;21.63;;;11.27;;
5869;SDS011;2961;47.702;9.410;2023-12-28T00:08:53;16.23;;;10.00;;
5869;SDS011;2961;47.702;9.410;2023-12-28T00:11:19;19.93;;;8.60;;
5869;SDS011;2961;47.702;9.410;2023-12-28T00:13:47;19.17;;;9.70;;
5869;SDS011;2961;47.702;9.410;2023-12-28T00:16:14;17.50;;;9.20;;
5869;SDS011;2961;47.702;9.410;2023-12-28T00:18:40;15.93;;;8.50;;
5869;SDS011;2961;47.702;9.410;2023-12-28T00:21:07;11.67;;;7.20;;
5869;SDS011;2961;47.702;9.410;2023-12-28T00:23:34;12.13;;;7.67;;
5869;SDS011;2961;47.702;9.410;2023-12-28T00:26:01;11.60;;;7.90;;
5869;SDS011;2961;47.702;9.410;2023-12-28T00:28:27;12.33;;;8.40;;
5869;SDS011;2961;47.702;9.410;2023-12-28T00:30:56;8.73;;;6.60;;
5869;SDS011;2961;47.702;9.410;2023-12-28T00:33:22;9.87;;;6.77;;
5869;SDS011;2961;47.702;9.410;2023-12-28T00:35:49;12.10;;;8.03;;
5869;SDS011;2961;47.702;9.410;2023-12-28T00:38:16;13.60;;;8.30;;
5869;SDS011;2961;47.702;9.410;2023-12-28T00:40:42;11.50;;;8.07;;
5869;SDS011;2961;47.702;9.410;2023-12-28T00:43:09;14.37;;;9.60;;
5869;SDS011;2961;47.702;9.410;2023-12-28T00:45:36;13.30;;;8.50;;
5869;SDS011;2961;47.702;9.410;2023-12-28T00:48:05;15.43;;;8.93;;
5869;SDS011;2961;47.702;9.410;2023-12-28T00:50:32;12.83;;;8.70;;
5869;SDS011;2961;47.702;9.410;2023-12-28T00:52:58;14.33;;;8.73;;
5869;SDS011;2961;47.702;9.410;2023-12-28T00:55:25;9.50;;;6.63;;
5869;SDS011;2961;47.702;9.410;2023-12-28T00:57:52;14.50;;;8.73;;
5869;SDS011;2961;47.702;9.410;2023-12-28T01:00:19;15.67;;;8.23;;
5869;SDS011;2961;47.702;9.410;2023-12-28T01:02:46;17.40;;;8.53;;
5869;SDS011;2961;47.702;9.410;2023-12-28T01:05:15;16.13;;;9.00;;
5869;SDS011;2961;47.702;9.410;2023-12-28T01:07:42;13.23;;;9.03;;
5869;SDS011;2961;47.702;9.410;2023-12-28T01:10:09;20.37;;;11.70;;
5869;SDS011;2961;47.702;9.410;2023-12-28T01:12:36;16.73;;;10.30;;
5869;SDS011;2961;47.702;9.410;2023-12-28T01:15:02;16.93;;;9.57;;
5869;SDS011;2961;47.702;9.410;2023-12-28T01:17:29;16.33;;;10.33;;
5869;SDS011;2961;47.702;9.410;2023-12-28T01:19:55;17.70;;;9.30;;
5869;SDS011;2961;47.702;9.410;2023-12-28T01:22:23;13.20;;;9.80;;
5869;SDS011;2961;47.702;9.410;2023-12-28T01:24:50;15.27;;;9.20;;
5869;SDS011;2961;47.702;9.410;2023-12-28T01:27:17;14.23;;;9.83;;
5869;SDS011;2961;47.702;9.410;2023-12-28T01:29:43;10.90;;;8.03;;
5869;SDS011;2961;47.702;9.410;2023-12-28T01:32:10;12.17;;;7.80;;
5869;SDS011;2961;47.702;9.410;2023-12-28T01:34:37;15.00;;;8.73;;
5869;SDS011;2961;47.702;9.410;2023-12-28T01:37:03;15.03;;;8.70;;
5869;SDS011;2961;47.702;9.410;2023-12-28T01:39:32;11.30;;;7.97;;
5869;SDS011;2961;47.702;9.410;2023-12-28T01:41:58;13.20;;;8.53;;
5869;SDS011;2961;47.702;9.410;2023-12-28T01:44:25;20.33;;;8.13;;
5869;SDS011;2961;47.702;9.410;2023-12-28T01:46:52;18.50;;;9.30;;
5869;SDS011;2961;47.702;9.410;2023-12-28T01:49:19;12.70;;;7.70;;
5869;SDS011;2961;47.702;9.410;2023-12-28T01:51:46;14.43;;;9.17;;
5869;SDS011;2961;47.702;9.410;2023-12-28T01:54:14;14.40;;;7.80;;
5869;SDS011;2961;47.702;9.410;2023-12-28T01:56:43;13.43;;;7.63;;
5869;SDS011;2961;47.702;9.410;2023-12-28T01:59:10;12.87;;;8.10;;
5869;SDS011;2961;47.702;9.410;2023-12-28T02:01:37;15.30;;;8.07;;
5869;SDS011;2961;47.702;9.410;2023-12-28T02:04:04;13.10;;;7.43;;
5869;SDS011;2961;47.702;9.410;2023-12-28T02:06:32;12.57;;;8.07;;
5869;SDS011;2961;47.702;9.410;2023-12-28T02:08:59;10.63;;;7.60;;
5869;SDS011;2961;47.702;9.410;2023-12-28T02:11:25;11.73;;;6.70;;
5869;SDS011;2961;47.702;9.410;2023-12-28T02:13:54;14.83;;;7.37;;
5869;SDS011;2961;47.702;9.410;2023-12-28T02:16:21;12.57;;;7.53;;
5869;SDS011;2961;47.702;9.410;2023-12-28T02:18:51;14.63;;;7.60;;
5869;SDS011;2961;47.702;9.410;2023-12-28T02:21:20;13.20;;;7.20;;
5869;SDS011;2961;47.702;9.410;2023-12-28T02:23:50;13.63;;;6.83;;
5869;SDS011;2961;47.702;9.410;2023-12-28T02:26:18;12.60;;;8.27;;
5869;SDS011;2961;47.702;9.410;2023-12-28T02:28:45;10.00;;;7.33;;
5869;SDS011;2961;47.702;9.410;2023-12-28T02:31:13;9.53;;;6.47;;
5869;SDS011;2961;47.702;9.410;2023-12-28T02:33:47;10.83;;;6.50;;
5869;SDS011;2961;47.702;9.410;2023-12-28T02:36:17;8.90;;;6.87;;
5869;SDS011;2961;47.702;9.410;2023-12-28T02:38:49;17.57;;;7.40;;
5869;SDS011;2961;47.702;9.410;2023-12-28T02:41:18;10.77;;;6.90;;
5869;SDS011;2961;47.702;9.410;2023-12-28T02:43:46;12.93;;;7.80;;
5869;SDS011;2961;47.702;9.410;2023-12-28T02:46:14;13.70;;;8.40;;
5869;SDS011;2961;47.702;9.410;2023-12-28T02:48:41;9.33;;;6.87;;
5869;SDS011;2961;47.702;9.410;2023-12-28T02:51:08;12.30;;;7.67;;
5869;SDS011;2961;47.702;9.410;2023-12-28T02:53:35;14.30;;;7.73;;
5869;SDS011;2961;47.702;9.410;2023-12-28T02:56:02;10.07;;;6.90;;
5869;SDS011;2961;47.702;9.410;2023-12-28T02:58:30;12.37;;;7.80;;
5869;SDS011;2961;47.702;9.410;2023-12-28T03:00:57;16.03;;;7.90;;
5869;SDS011;2961;47.702;9.410;2023-12-28T03:03:24;19.67;;;6.50;;
5869;SDS011;2961;47.702;9.410;2023-12-28T03:05:50;12.70;;;6.60;;
5869;SDS011;2961;47.702;9.410;2023-12-28T03:08:17;13.87;;;8.03;;
5869;SDS011;2961;47.702;9.410;2023-12-28T03:10:44;13.07;;;6.70;;
5869;SDS011;2961;47.702;9.410;2023-12-28T03:13:11;12.60;;;7.57;;
5869;SDS011;2961;47.702;9.410;2023-12-28T03:15:39;8.20;;;5.97;;
5869;SDS011;2961;47.702;9.410;2023-12-28T03:18:06;11.57;;;7.03;;
5869;SDS011;2961;47.702;9.410;2023-12-28T03:20:32;13.97;;;8.00;;
5869;SDS011;2961;47.702;9.410;2023-12-28T03:22:59;12.07;;;7.30;;
5869;SDS011;2961;47.702;9.410;2023-12-28T03:25:26;12.77;;;7.90;;
5869;SDS011;2961;47.702;9.410;2023-12-28T03:27:53;13.50;;;7.93;;
5869;SDS011;2961;47.702;9.410;2023-12-28T03:30:20;18.33;;;8.73;;
5869;SDS011;2961;47.702;9.410;2023-12-28T03:32:48;17.47;;;8.60;;
5869;SDS011;2961;47.702;9.410;2023-12-28T03:35:15;10.87;;;7.30;;
5869;SDS011;2961;47.702;9.410;2023-12-28T03:37:42;18.93;;;8.83;;
5869;SDS011;2961;47.702;9.410;2023-12-28T03:40:09;12.93;;;7.90;;
5869;SDS011;2961;47.702;9.410;2023-12-28T03:42:36;13.87;;;8.20;;
5869;SDS011;2961;47.702;9.410;2023-12-28T03:45:04;13.73;;;8.00;;
5869;SDS011;2961;47.702;9.410;2023-12-28T03:47:32;10.13;;;7.73;;
5869;SDS011;2961;47.702;9.410;2023-12-28T03:50:00;12.20;;;7.57;;
5869;SDS011;2961;47.702;9.410;2023-12-28T03:52:27;14.07;;;7.37;;
5869;SDS011;2961;47.702;9.410;2023-12-28T03:54:55;14.87;;;8.27;;
5869;SDS011;2961;47.702;9.410;2023-12-28T03:57:22;13.73;;;7.90;;
5869;SDS011;2961;47.702;9.410;2023-12-28T03:59:49;10.43;;;6.67;;
5869;SDS011;2961;47.702;9.410;2023-12-28T04:02:16;11.07;;;7.67;;
5869;SDS011;2961;47.702;9.410;2023-12-28T04:04:43;15.83;;;7.83;;
5869;SDS011;2961;47.702;9.410;2023-12-28T04:07:11;15.30;;;8.17;;
5869;SDS011;2961;47.702;9.410;2023-12-28T04:09:38;8.20;;;6.80;;
5869;SDS011;2961;47.702;9.410;2023-12-28T04:12:04;10.60;;;7.33;;
5869;SDS011;2961;47.702;9.410;2023-12-28T04:14:32;9.80;;;6.83;;
5869;SDS011;2961;47.702;9.410;2023-12-28T04:16:59;11.00;;;7.07;;
5869;SDS011;2961;47.702;9.410;2023-12-28T04:19:26;13.70;;;7.47;;
5869;SDS011;2961;47.702;9.410;2023-12-28T04:21:53;10.47;;;6.90;;
5869;SDS011;2961;47.702;9.410;2023-12-28T04:24:22;9.40;;;6.40;;
5869;SDS011;2961;47.702;9.410;2023-12-28T04:26:49;11.87;;;7.43;;
5869;SDS011;2961;47.702;9.410;2023-12-28T04:29:15;10.40;;;7.10;;
5869;SDS011;2961;47.702;9.410;2023-12-28T04:31:42;11.90;;;7.10;;
5869;SDS011;2961;47.702;9.410;2023-12-28T04:34:09;11.97;;;7.30;;
5869;SDS011;2961;47.702;9.410;2023-12-28T04:36:39;13.27;;;7.40;;
5869;SDS011;2961;47.702;9.410;2023-12-28T04:39:06;10.27;;;7.20;;
5869;SDS011;2961;47.702;9.410;2023-12-28T04:41:35;10.37;;;6.87;;
5869;SDS011;2961;47.702;9.410;2023-12-28T04:44:01;8.97;;;6.10;;
5869;SDS011;2961;47.702;9.410;2023-12-28T04:46:28;12.13;;;7.13;;
5869;SDS011;2961;47.702;9.410;2023-12-28T04:48:55;10.60;;;6.60;;
5869;SDS011;2961;47.702;9.410;2023-12-28T04:51:22;14.00;;;6.40;;
5869;SDS011;2961;47.702;9.410;2023-12-28T04:53:49;8.60;;;6.37;;
5869;SDS011;2961;47.702;9.410;2023-12-28T04:56:17;15.03;;;8.00;;
5869;SDS011;2961;47.702;9.410;2023-12-28T04:58:46;9.60;;;7.17;;
5869;SDS011;2961;47.702;9.410;2023-12-28T05:01:13;9.73;;;6.80;;
5869;SDS011;2961;47.702;9.410;2023-12-28T05:03:40;10.10;;;7.43;;
5869;SDS011;2961;47.702;9.410;2023-12-28T05:06:06;13.57;;;7.10;;
5869;SDS011;2961;47.702;9.410;2023-12-28T05:08:33;8.83;;;6.17;;
5869;SDS011;2961;47.702;9.410;2023-12-28T05:11:00;8.97;;;6.50;;
5869;SDS011;2961;47.702;9.410;2023-12-28T05:13:27;11.90;;;6.60;;
5869;SDS011;2961;47.702;9.410;2023-12-28T05:15:55;9.80;;;6.53;;
5869;SDS011;2961;47.702;9.410;2023-12-28T05:18:22;12.10;;;6.70;;
5869;SDS011;2961;47.702;9.410;2023-12-28T05:20:48;14.00;;;6.63;;
5869;SDS011;2961;47.702;9.410;2023-12-28T05:23:15;11.87;;;6.97;;
5869;SDS011;2961;47.702;9.410;2023-12-28T05:25:42;10.93;;;6.13;;
5869;SDS011;2961;47.702;9.410;2023-12-28T05:28:11;14.53;;;7.80;;
5869;SDS011;2961;47.702;9.410;2023-12-28T05:30:38;15.03;;;7.90;;
5869;SDS011;2961;47.702;9.410;2023-12-28T05:33:06;10.43;;;6.20;;
5869;SDS011;2961;47.702;9.410;2023-12-28T05:35:32;23.27;;;7.47;;
5869;SDS011;2961;47.702;9.410;2023-12-28T05:37:59;19.37;;;7.70;;
5869;SDS011;2961;47.702;9.410;2023-12-28T05:40:26;13.10;;;5.90;;
5869;SDS011;2961;47.702;9.410;2023-12-28T05:42:53;9.83;;;6.50;;
5869;SDS011;2961;47.702;9.410;2023-12-28T05:45:19;11.03;;;6.40;;
5869;SDS011;2961;47.702;9.410;2023-12-28T05:47:46;9.77;;;6.50;;
5869;SDS011;2961;47.702;9.410;2023-12-28T05:50:15;24.87;;;8.30;;
5869;SDS011;2961;47.702;9.410;2023-12-28T05:52:41;11.20;;;7.23;;
5869;SDS011;2961;47.702;9.410;2023-12-28T05:55:08;12.60;;;7.40;;
5869;SDS011;2961;47.702;9.410;2023-12-28T05:57:35;10.80;;;7.10;;
5869;SDS011;2961;47.702;9.410;2023-12-28T06:00:02;10.43;;;6.27;;
5869;SDS011;2961;47.702;9.410;2023-12-28T06:02:31;12.33;;;7.47;;
5869;SDS011;2961;47.702;9.410;2023-12-28T06:04:58;14.67;;;7.70;;
5869;SDS011;2961;47.702;9.410;2023-12-28T06:07:26;12.83;;;7.40;;
5869;SDS011;2961;47.702;9.410;2023-12-28T06:09:53;11.40;;;7.07;;
5869;SDS011;2961;47.702;9.410;2023-12-28T06:12:19;10.97;;;7.87;;
5869;SDS011;2961;47.702;9.410;2023-12-28T06:14:46;17.17;;;8.73;;
5869;SDS011;2961;47.702;9.410;2023-12-28T06:17:13;12.20;;;7.47;;
5869;SDS011;2961;47.702;9.410;2023-12-28T06:19:40;13.80;;;6.93;;
5869;SDS011;2961;47.702;9.410;2023-12-28T06:22:07;10.37;;;6.97;;
5869;SDS011;2961;47.702;9.410;2023-12-28T06:24:38;18.73;;;9.60;;
5869;SDS011;2961;47.702;9.410;2023-12-28T06:27:05;16.30;;;9.67;;
5869;SDS011;2961;47.702;9.410;2023-12-28T06:29:32;14.67;;;7.83;;
5869;SDS011;2961;47.702;9.410;2023-12-28T06:31:59;14.77;;;9.27;;
5869;SDS011;2961;47.702;9.410;2023-12-28T06:34:26;15.77;;;11.20;;
5869;SDS011;2961;47.702;9.410;2023-12-28T06:36:52;20.50;;;10.90;;
5869;SDS011;2961;47.702;9.410;2023-12-28T06:39:19;19.73;;;10.00;;
5869;SDS011;2961;47.702;9.410;2023-12-28T06:41:48;16.53;;;8.83;;
5869;SDS011;2961;47.702;9.410;2023-12-28T06:44:15;15.07;;;8.93;;
5869;SDS011;2961;47.702;9.410;2023-12-28T06:46:41;15.47;;;9.67;;
5869;SDS011;2961;47.702;9.410;2023-12-28T06:49:08;13.27;;;8.60;;
5869;SDS011;2961;47.702;9.410;2023-12-28T06:51:35;17.30;;;8.90;;
5869;SDS011;2961;47.702;9.410;2023-12-28T06:54:02;11.03;;;8.20;;
5869;SDS011;2961;47.702;9.410;2023-12-28T06:56:29;15.30;;;8.73;;
5869;SDS011;2961;47.702;9.410;2023-12-28T06:58:57;17.00;;;8.07;;
5869;SDS011;2961;47.702;9.410;2023-12-28T07:01:24;15.20;;;9.47;;
5869;SDS011;2961;47.702;9.410;2023-12-28T07:03:51;17.20;;;10.00;;
5869;SDS011;2961;47.702;9.410;2023-12-28T07:06:17;12.93;;;8.13;;
5869;SDS011;2961;47.702;9.410;2023-12-28T07:08:44;14.23;;;10.03;;
5869;SDS011;2961;47.702;9.410;2023-12-28T07:11:11;14.53;;;10.07;;
5869;SDS011;2961;47.702;9.410;2023-12-28T07:13:38;13.50;;;8.67;;
5869;SDS011;2961;47.702;9.410;2023-12-28T07:16:06;13.93;;;8.10;;
5869;SDS011;2961;47.702;9.410;2023-12-28T07:18:33;13.73;;;9.40;;
5869;SDS011;2961;47.702;9.410;2023-12-28T07:21:00;18.17;;;10.43;;
5869;SDS011;2961;47.702;9.410;2023-12-28T07:23:27;20.00;;;9.73;;
5869;SDS011;2961;47.702;9.410;2023-12-28T07:25:54;16.10;;;10.20;;
5869;SDS011;2961;47.702;9.410;2023-12-28T07:28:20;17.20;;;9.10;;
5869;SDS011;2961;47.702;9.410;2023-12-28T07:30:47;13.77;;;9.27;;
5869;SDS011;2961;47.702;9.410;2023-12-28T07:33:15;15.87;;;9.00;;
5869;SDS011;2961;47.702;9.410;2023-12-28T07:35:42;14.87;;;9.00;;
5869;SDS011;2961;47.702;9.410;2023-12-28T07:38:09;11.23;;;8.00;;
5869;SDS011;2961;47.702;9.410;2023-12-28T07:40:36;12.50;;;8.00;;
5869;SDS011;2961;47.702;9.410;2023-12-28T07:43:03;15.63;;;8.60;;
5869;SDS011;2961;47.702;9.410;2023-12-28T07:45:30;17.07;;;10.03;;
5869;SDS011;2961;47.702;9.410;2023-12-28T07:47:58;17.33;;;9.90;;
5869;SDS011;2961;47.702;9.410;2023-12-28T07:50:27;24.80;;;12.27;;
5869;SDS011;2961;47.702;9.410;2023-12-28T07:52:54;16.27;;;10.57;;
5869;SDS011;2961;47.702;9.410;2023-12-28T07:55:20;18.33;;;11.27;;
5869;SDS011;2961;47.702;9.410;2023-12-28T07:57:47;18.23;;;10.23;;
5869;SDS011;2961;47.702;9.410;2023-12-28T08:00:14;20.60;;;10.57;;
5869;SDS011;2961;47.702;9.410;2023-12-28T08:02:41;17.57;;;10.53;;
5869;SDS011;2961;47.702;9.410;2023-12-28T08:05:08;19.53;;;12.43;;
5869;SDS011;2961;47.702;9.410;2023-12-28T08:07:36;13.83;;;9.93;;
5869;SDS011;2961;47.702;9.410;2023-12-28T08:10:03;23.47;;;12.47;;
5869;SDS011;2961;47.702;9.410;2023-12-28T08:12:31;36.37;;;18.40;;
5869;SDS011;2961;47.702;9.410;2023-12-28T08:14:59;58.90;;;26.63;;
5869;SDS011;2961;47.702;9.410;2023-12-28T08:17:25;44.50;;;22.90;;
5869;SDS011;2961;47.702;9.410;2023-12-28T08:19:52;48.73;;;22.90;;
5869;SDS011;2961;47.702;9.410;2023-12-28T08:22:20;32.77;;;18.07;;
5869;SDS011;2961;47.702;9.410;2023-12-28T08:24:48;29.50;;;14.30;;
5869;SDS011;2961;47.702;9.410;2023-12-28T08:27:15;18.67;;;12.60;;
5869;SDS011;2961;47.702;9.410;2023-12-28T08:29:42;21.07;;;12.60;;
5869;SDS011;2961;47.702;9.410;2023-12-28T08:32:09;21.83;;;13.53;;
5869;SDS011;2961;47.702;9.410;2023-12-28T08:34:36;29.20;;;15.37;;
5869;SDS011;2961;47.702;9.410;2023-12-28T08:37:03;24.73;;;15.30;;
5869;SDS011;2961;47.702;9.410;2023-12-28T08:39:30;24.30;;;14.77;;
5869;SDS011;2961;47.702;9.410;2023-12-28T08:41:58;32.17;;;18.87;;
5869;SDS011;2961;47.702;9.410;2023-12-28T08:44:25;29.93;;;17.83;;
5869;SDS011;2961;47.702;9.410;2023-12-28T08:46:52;30.50;;;18.00;;
5869;SDS011;2961;47.702;9.410;2023-12-28T08:49:19;28.47;;;17.63;;
5869;SDS011;2961;47.702;9.410;2023-12-28T08:51:47;23.87;;;16.40;;
5869;SDS011;2961;47.702;9.410;2023-12-28T08:54:14;22.73;;;15.67;;
5869;SDS011;2961;47.702;9.410;2023-12-28T08:56:40;28.50;;;16.00;;
5869;SDS011;2961;47.702;9.410;2023-12-28T08:59:10;25.97;;;17.40;;
5869;SDS011;2961;47.702;9.410;2023-12-28T09:01:37;23.00;;;15.80;;
5869;SDS011;2961;47.702;9.410;2023-12-28T09:04:03;29.10;;;17.00;;
5869;SDS011;2961;47.702;9.410;2023-12-28T09:06:30;24.13;;;14.37;;
5869;SDS011;2961;47.702;9.410;2023-12-28T09:08:57;19.40;;;12.47;;
5869;SDS011;2961;47.702;9.410;2023-12-28T09:11:24;18.70;;;11.10;;
5869;SDS011;2961;47.702;9.410;2023-12-28T09:13:52;17.00;;;10.67;;
5869;SDS011;2961;47.702;9.410;2023-12-28T09:16:20;11.23;;;7.87;;
5869;SDS011;2961;47.702;9.410;2023-12-28T09:18:47;14.43;;;8.40;;
5869;SDS011;2961;47.702;9.410;2023-12-28T09:21:14;14.73;;;10.80;;
5869;SDS011;2961;47.702;9.410;2023-12-28T09:23:40;19.30;;;12.77;;
5869;SDS011;2961;47.702;9.410;2023-12-28T09:26:07;15.87;;;11.30;;
5869;SDS011;2961;47.702;9.410;2023-12-28T09:28:34;16.00;;;10.60;;
5869;SDS011;2961;47.702;9.410;2023-12-28T09:31:02;14.90;;;9.73;;
5869;SDS011;2961;47.702;9.410;2023-12-28T09:33:31;15.90;;;9.30;;
5869;SDS011;2961;47.702;9.410;2023-12-28T09:35:58;15.47;;;9.50;;
5869;SDS011;2961;47.702;9.410;2023-12-28T09:38:25;17.57;;;9.23;;
5869;SDS011;2961;47.702;9.410;2023-12-28T09:40:53;17.80;;;8.63;;
5869;SDS011;2961;47.702;9.410;2023-12-28T09:43:21;8.43;;;7.07;;
5869;SDS011;2961;47.702;9.410;2023-12-28T09:45:50;8.90;;;7.60;;
5869;SDS011;2961;47.702;9.410;2023-12-28T09:48:18;13.00;;;8.90;;
5869;SDS011;2961;47.702;9.410;2023-12-28T09:50:48;19.40;;;12.57;;
5869;SDS011;2961;47.702;9.410;2023-12-28T09:53:16;18.83;;;13.20;;
5869;SDS011;2961;47.702;9.410;2023-12-28T09:55:43;20.37;;;12.47;;
5869;SDS011;2961;47.702;9.410;2023-12-28T09:58:11;20.33;;;12.80;;
5869;SDS011;2961;47.702;9.410;2023-12-28T10:00:44;21.20;;;12.70;;
5869;SDS011;2961;47.702;9.410;2023-12-28T10:03:11;17.90;;;11.43;;
5869;SDS011;2961;47.702;9.410;2023-12-28T10:05:40;24.30;;;15.37;;
5869;SDS011;2961;47.702;9.410;2023-12-28T10:08:08;36.07;;;21.07;;
5869;SDS011;2961;47.702;9.410;2023-12-28T10:10:37;22.90;;;14.07;;
5869;SDS011;2961;47.702;9.410;2023-12-28T10:13:03;19.80;;;13.40;;
5869;SDS011;2961;47.702;9.410;2023-12-28T10:15:32;16.37;;;11.37;;
5869;SDS011;2961;47.702;9.410;2023-12-28T10:17:58;20.67;;;12.70;;
5869;SDS011;2961;47.702;9.410;2023-12-28T10:20:26;20.90;;;13.60;;
5869;SDS011;2961;47.702;9.410;2023-12-28T10:22:52;16.20;;;12.13;;
5869;SDS011;2961;47.702;9.410;2023-12-28T10:25:21;17.40;;;11.10;;
5869;SDS011;2961;47.702;9.410;2023-12-28T10:27:50;20.80;;;12.20;;
5869;SDS011;2961;47.702;9.410;2023-12-28T10:30:19;15.93;;;10.60;;
5869;SDS011;2961;47.702;9.410;2023-12-28T10:32:46;71.57;;;14.00;;
5869;SDS011;2961;47.702;9.410;2023-12-28T10:35:13;19.73;;;11.13;;
5869;SDS011;2961;47.702;9.410;2023-12-28T10:37:41;18.03;;;13.73;;
5869;SDS011;2961;47.702;9.410;2023-12-28T10:40:12;19.60;;;12.67;;
5869;SDS011;2961;47.702;9.410;2023-12-28T10:42:46;20.07;;;12.53;;
5869;SDS011;2961;47.702;9.410;2023-12-28T10:45:18;18.17;;;12.03;;
5869;SDS011;2961;47.702;9.410;2023-12-28T10:47:51;17.57;;;10.80;;
5869;SDS011;2961;47.702;9.410;2023-12-28T10:50:22;19.27;;;10.83;;
5869;SDS011;2961;47.702;9.410;2023-12-28T10:52:53;16.70;;;9.87;;
5869;SDS011;2961;47.702;9.410;2023-12-28T10:55:28;17.67;;;11.17;;
5869;SDS011;2961;47.702;9.410;2023-12-28T10:58:03;16.00;;;11.40;;
5869;SDS011;2961;47.702;9.410;2023-12-28T11:00:36;18.60;;;10.50;;
5869;SDS011;2961;47.702;9.410;2023-12-28T11:03:08;15.50;;;11.17;;
5869;SDS011;2961;47.702;9.410;2023-12-28T11:05:37;23.50;;;14.77;;
5869;SDS011;2961;47.702;9.410;2023-12-28T11:08:09;22.10;;;16.00;;
5869;SDS011;2961;47.702;9.410;2023-12-28T11:10:38;19.97;;;14.07;;
5869;SDS011;2961;47.702;9.410;2023-12-28T11:13:07;27.30;;;16.23;;
5869;SDS011;2961;47.702;9.410;2023-12-28T11:15:35;28.33;;;15.43;;
5869;SDS011;2961;47.702;9.410;2023-12-28T11:18:04;25.30;;;13.70;;
5869;SDS011;2961;47.702;9.410;2023-12-28T11:20:31;19.40;;;14.30;;
5869;SDS011;2961;47.702;9.410;2023-12-28T11:22:58;23.77;;;14.37;;
5869;SDS011;2961;47.702;9.410;2023-12-28T11:25:30;22.70;;;15.80;;
5869;SDS011;2961;47.702;9.410;2023-12-28T11:27:57;33.63;;;15.50;;
5869;SDS011;2961;47.702;9.410;2023-12-28T11:30:26;21.03;;;13.57;;
5869;SDS011;2961;47.702;9.410;2023-12-28T11:32:55;27.57;;;13.17;;
5869;SDS011;2961;47.702;9.410;2023-12-28T11:35:23;16.07;;;11.30;;
5869;SDS011;2961;47.702;9.410;2023-12-28T11:37:57;23.07;;;14.27;;
5869;SDS011;2961;47.702;9.410;2023-12-28T11:40:28;24.07;;;13.17;;
5869;SDS011;2961;47.702;9.410;2023-12-28T11:42:54;20.43;;;13.13;;
5869;SDS011;2961;47.702;9.410;2023-12-28T11:45:22;17.73;;;11.73;;
5869;SDS011;2961;47.702;9.410;2023-12-28T11:47:59;18.03;;;11.10;;
5869;SDS011;2961;47.702;9.410;2023-12-28T11:50:27;15.47;;;12.57;;
5869;SDS011;2961;47.702;9.410;2023-12-28T11:52:53;20.33;;;12.67;;
5869;SDS011;2961;47.702;9.410;2023-12-28T11:55:21;24.05;;;14.73;;
5869;SDS011;2961;47.702;9.410;2023-12-28T11:57:48;14.83;;;11.30;;
5869;SDS011;2961;47.702;9.410;2023-12-28T12:00:15;16.07;;;10.73;;
5869;SDS011;2961;47.702;9.410;2023-12-28T12:02:43;19.27;;;12.23;;
5869;SDS011;2961;47.702;9.410;2023-12-28T12:05:12;19.73;;;13.20;;
5869;SDS011;2961;47.702;9.410;2023-12-28T12:07:40;19.87;;;13.80;;
5869;SDS011;2961;47.702;9.410;2023-12-28T12:10:07;17.87;;;13.50;;
5869;SDS011;2961;47.702;9.410;2023-12-28T12:12:40;19.03;;;13.10;;
5869;SDS011;2961;47.702;9.410;2023-12-28T12:15:07;21.43;;;13.80;;
5869;SDS011;2961;47.702;9.410;2023-12-28T12:17:35;17.70;;;12.73;;
5869;SDS011;2961;47.702;9.410;2023-12-28T12:20:02;19.90;;;13.13;;
5869;SDS011;2961;47.702;9.410;2023-12-28T12:22:32;18.67;;;11.87;;
5869;SDS011;2961;47.702;9.410;2023-12-28T12:24:59;16.20;;;11.90;;
5869;SDS011;2961;47.702;9.410;2023-12-28T12:27:29;20.23;;;13.30;;
5869;SDS011;2961;47.702;9.410;2023-12-28T12:29:55;14.80;;;10.60;;
5869;SDS011;2961;47.702;9.410;2023-12-28T12:32:22;17.20;;;10.50;;
5869;SDS011;2961;47.702;9.410;2023-12-28T12:34:49;16.13;;;11.05;;
5869;SDS011;2961;47.702;9.410;2023-12-28T12:37:17;13.40;;;10.30;;
5869;SDS011;2961;47.702;9.410;2023-12-28T12:39:45;14.17;;;9.47;;
5869;SDS011;2961;47.702;9.410;2023-12-28T12:42:12;15.50;;;10.40;;
5869;SDS011;2961;47.702;9.410;2023-12-28T12:44:39;12.40;;;9.37;;
5869;SDS011;2961;47.702;9.410;2023-12-28T12:47:06;15.47;;;9.70;;
5869;SDS011;2961;47.702;9.410;2023-12-28T12:49:33;11.53;;;8.90;;
5869;SDS011;2961;47.702;9.410;2023-12-28T12:52:01;13.30;;;10.53;;
5869;SDS011;2961;47.702;9.410;2023-12-28T12:54:27;13.47;;;9.30;;
5869;SDS011;2961;47.702;9.410;2023-12-28T12:56:55;13.70;;;10.50;;
5869;SDS011;2961;47.702;9.410;2023-12-28T12:59:24;13.83;;;10.17;;
5869;SDS011;2961;47.702;9.410;2023-12-28T13:01:51;11.23;;;9.17;;
5869;SDS011;2961;47.702;9.410;2023-12-28T13:04:18;11.97;;;9.40;;
5869;SDS011;2961;47.702;9.410;2023-12-28T13:06:45;13.37;;;10.60;;
5869;SDS011;2961;47.702;9.410;2023-12-28T13:09:12;36.07;;;18.83;;
5869;SDS011;2961;47.702;9.410;2023-12-28T13:11:39;39.23;;;21.37;;
5869;SDS011;2961;47.702;9.410;2023-12-28T13:14:07;22.93;;;13.43;;
5869;SDS011;2961;47.702;9.410;2023-12-28T13:16:34;17.40;;;11.40;;
5869;SDS011;2961;47.702;9.410;2023-12-28T13:19:00;23.00;;;13.73;;
5869;SDS011;2961;47.702;9.410;2023-12-28T13:21:27;16.47;;;11.23;;
5869;SDS011;2961;47.702;9.410;2023-12-28T13:24:03;13.77;;;10.77;;
5869;SDS011;2961;47.702;9.410;2023-12-28T13:26:30;23.90;;;12.67;;
5869;SDS011;2961;47.702;9.410;2023-12-28T13:28:57;14.60;;;10.57;;
5869;SDS011;2961;47.702;9.410;2023-12-28T13:31:25;12.13;;;10.23;;
5869;SDS011;2961;47.702;9.410;2023-12-28T13:33:52;23.93;;;10.87;;
5869;SDS011;2961;47.702;9.410;2023-12-28T13:36:19;15.20;;;10.27;;
5869;SDS011;2961;47.702;9.410;2023-12-28T13:38:45;11.77;;;10.10;;
5869;SDS011;2961;47.702;9.410;2023-12-28T13:41:13;12.07;;;9.93;;
5869;SDS011;2961;47.702;9.410;2023-12-28T13:43:40;13.83;;;10.17;;
5869;SDS011;2961;47.702;9.410;2023-12-28T13:46:06;14.53;;;11.00;;
5869;SDS011;2961;47.702;9.410;2023-12-28T13:48:35;14.60;;;9.70;;
5869;SDS011;2961;47.702;9.410;2023-12-28T13:51:04;14.57;;;9.33;;
5869;SDS011;2961;47.702;9.410;2023-12-28T13:53:31;13.97;;;10.03;;
5869;SDS011;2961;47.702;9.410;2023-12-28T13:56:00;14.43;;;10.60;;
5869;SDS011;2961;47.702;9.410;2023-12-28T13:58:28;12.97;;;10.30;;
5869;SDS011;2961;47.702;9.410;2023-12-28T14:00:54;17.90;;;11.50;;
5869;SDS011;2961;47.702;9.410;2023-12-28T14:03:21;15.50;;;9.40;;
5869;SDS011;2961;47.702;9.410;2023-12-28T14:05:49;12.80;;;9.80;;
5869;SDS011;2961;47.702;9.410;2023-12-28T14:08:16;15.80;;;11.10;;
5869;SDS011;2961;47.702;9.410;2023-12-28T14:10:43;20.27;;;12.20;;
5869;SDS011;2961;47.702;9.410;2023-12-28T14:13:09;49.20;;;18.87;;
5869;SDS011;2961;47.702;9.410;2023-12-28T14:15:36;37.13;;;19.27;;
5869;SDS011;2961;47.702;9.410;2023-12-28T14:18:04;53.97;;;18.90;;
5869;SDS011;2961;47.702;9.410;2023-12-28T14:20:32;51.40;;;18.93;;
5869;SDS011;2961;47.702;9.410;2023-12-28T14:23:00;39.10;;;18.30;;
5869;SDS011;2961;47.702;9.410;2023-12-28T14:25:27;34.10;;;15.27;;
5869;SDS011;2961;47.702;9.410;2023-12-28T14:27:55;16.70;;;11.17;;
5869;SDS011;2961;47.702;9.410;2023-12-28T14:30:22;15.03;;;10.27;;
5869;SDS011;2961;47.702;9.410;2023-12-28T14:32:50;14.83;;;10.87;;
5869;SDS011;2961;47.702;9.410;2023-12-28T14:35:17;13.13;;;10.13;;
5869;SDS011;2961;47.702;9.410;2023-12-28T14:37:44;16.20;;;9.57;;
5869;SDS011;2961;47.702;9.410;2023-12-28T14:40:12;15.50;;;10.57;;
5869;SDS011;2961;47.702;9.410;2023-12-28T14:42:40;13.10;;;9.87;;
5869;SDS011;2961;47.702;9.410;2023-12-28T14:45:07;13.00;;;9.60;;
5869;SDS011;2961;47.702;9.410;2023-12-28T14:47:35;12.17;;;9.20;;
5869;SDS011;2961;47.702;9.410;2023-12-28T14:50:02;14.10;;;9.40;;
5869;SDS011;2961;47.702;9.410;2023-12-28T14:52:30;13.33;;;10.67;;
5869;SDS011;2961;47.702;9.410;2023-12-28T14:54:57;15.33;;;12.07;;
5869;SDS011;2961;47.702;9.410;2023-12-28T14:57:25;14.60;;;10.33;;